createdAt,value
2018-10-16T00:01:04.103Z,90.40
2018-10-16T00:03:32.772Z,90.60
2018-10-16T00:06:01.545Z,90.90
2018-10-16T00:08:30.329Z,91.00
2018-10-16T00:10:59.036Z,91.20
2018-10-16T00:13:27.702Z,91.50
2018-10-16T00:15:56.309Z,91.80
2018-10-16T00:18:35.972Z,91.80
2018-10-16T00:21:04.827Z,91.60
2018-10-16T00:23:33.605Z,91.50
2018-10-16T00:26:02.302Z,91.50
2018-10-16T00:28:30.961Z,91.40
2018-10-16T00:30:59.608Z,91.30
2018-10-16T00:33:28.288Z,91.20
2018-10-16T00:35:56.949Z,91.00
2018-10-16T00:38:25.632Z,90.70
2018-10-16T00:40:54.341Z,90.70
2018-10-16T00:43:22.993Z,90.70
2018-10-16T00:45:51.666Z,90.80
2018-10-16T00:48:20.365Z,90.80
2018-10-16T00:50:49.102Z,90.90
2018-10-16T00:53:17.828Z,91.10
2018-10-16T00:55:46.555Z,91.00
2018-10-16T00:58:15.212Z,90.80
2018-10-16T01:00:43.895Z,90.80
2018-10-16T01:03:12.610Z,90.70
2018-10-16T01:05:41.276Z,90.50
2018-10-16T01:08:09.929Z,90.60
2018-10-16T01:10:38.617Z,90.50
2018-10-16T01:13:07.336Z,90.30
2018-10-16T01:15:36.040Z,90.30
2018-10-16T01:18:04.716Z,90.30
2018-10-16T01:20:33.437Z,90.30
2018-10-16T01:23:02.061Z,90.40
2018-10-16T01:25:30.845Z,90.60
2018-10-16T01:27:59.498Z,90.50
2018-10-16T01:30:28.204Z,90.50
2018-10-16T01:32:56.923Z,90.60
2018-10-16T01:35:25.566Z,90.90
2018-10-16T01:37:54.263Z,91.10
2018-10-16T01:40:22.933Z,90.90
2018-10-16T01:42:51.661Z,90.70
2018-10-16T01:45:22.255Z,90.70
2018-10-16T01:47:53.392Z,90.70
2018-10-16T01:50:22.085Z,90.50
2018-10-16T01:52:50.643Z,90.60
2018-10-16T01:55:19.289Z,90.90
2018-10-16T01:57:47.920Z,91.00
2018-10-16T02:00:16.630Z,91.10
2018-10-16T02:02:45.339Z,91.50
2018-10-16T02:05:13.959Z,91.70
2018-10-16T02:07:42.676Z,91.60
2018-10-16T02:10:11.344Z,91.50
2018-10-16T02:12:39.916Z,91.40
2018-10-16T02:15:09.249Z,91.20
2018-10-16T02:17:38.757Z,91.10
2018-10-16T02:20:07.822Z,91.10
2018-10-16T02:22:36.927Z,91.00
2018-10-16T02:25:05.617Z,91.10
2018-10-16T02:27:34.261Z,91.00
2018-10-16T02:30:02.860Z,91.30
2018-10-16T02:32:31.478Z,91.40
2018-10-16T02:35:00.118Z,91.40
2018-10-16T02:37:28.832Z,91.50
2018-10-16T02:39:57.545Z,91.90
2018-10-16T02:42:26.140Z,92.00
2018-10-16T02:44:54.850Z,92.40
2018-10-16T02:47:23.594Z,92.60
2018-10-16T02:49:52.257Z,92.70
2018-10-16T02:52:20.966Z,92.60
2018-10-16T02:54:49.607Z,92.60
2018-10-16T02:57:18.402Z,92.80
2018-10-16T02:59:47.117Z,93.10
2018-10-16T03:02:15.840Z,93.10
2018-10-16T03:04:44.543Z,93.20
2018-10-16T03:07:13.303Z,93.40
2018-10-16T03:09:42.045Z,93.30
2018-10-16T03:12:10.759Z,93.20
2018-10-16T03:14:39.497Z,93.10
2018-10-16T03:17:09.429Z,93.00
2018-10-16T03:19:38.282Z,93.00
2018-10-16T03:22:07.202Z,93.10
2018-10-16T03:24:35.884Z,94.00
2018-10-16T03:27:04.645Z,95.80
2018-10-16T03:29:33.377Z,95.50
2018-10-16T03:32:02.068Z,95.40
2018-10-16T03:34:30.805Z,95.30
2018-10-16T03:36:59.483Z,95.30
2018-10-16T03:39:28.219Z,95.10
2018-10-16T03:41:56.946Z,95.00
2018-10-16T03:44:25.726Z,95.00
2018-10-16T03:46:54.399Z,94.90
2018-10-16T03:49:23.111Z,94.80
2018-10-16T03:51:51.770Z,94.70
2018-10-16T03:54:20.480Z,94.70
2018-10-16T03:56:49.175Z,94.50
2018-10-16T03:59:17.801Z,94.40
2018-10-16T04:01:46.443Z,94.40
2018-10-16T04:04:15.044Z,94.20
2018-10-16T04:06:43.791Z,93.90
2018-10-16T04:09:12.409Z,93.80
2018-10-16T04:11:41.063Z,93.70
2018-10-16T04:14:09.718Z,93.60
2018-10-16T04:16:38.336Z,93.50
2018-10-16T04:19:07.038Z,93.70
2018-10-16T04:21:41.399Z,93.70
2018-10-16T04:24:10.087Z,93.70
2018-10-16T04:26:38.821Z,93.50
2018-10-16T04:29:07.897Z,93.30
2018-10-16T04:31:36.493Z,93.30
2018-10-16T04:34:05.382Z,93.40
2018-10-16T04:36:34.087Z,93.40
2018-10-16T04:39:02.874Z,93.20
2018-10-16T04:41:31.508Z,93.20
2018-10-16T04:44:00.235Z,93.30
2018-10-16T04:46:29.002Z,93.20
2018-10-16T04:48:57.736Z,93.10
2018-10-16T04:51:26.432Z,93.20
2018-10-16T04:53:55.196Z,93.10
2018-10-16T04:56:23.929Z,93.10
2018-10-16T04:58:52.635Z,93.20
2018-10-16T05:01:21.367Z,93.10
2018-10-16T05:03:50.105Z,92.90
2018-10-16T05:06:18.849Z,92.90
2018-10-16T05:08:47.535Z,92.90
2018-10-16T05:11:16.277Z,93.00
2018-10-16T05:13:44.908Z,93.10
2018-10-16T05:16:23.329Z,93.40
2018-10-16T05:18:52.248Z,93.60
2018-10-16T05:21:20.982Z,93.60
2018-10-16T05:23:50.017Z,94.00
2018-10-16T05:26:18.752Z,94.30
2018-10-16T05:28:47.495Z,94.00
2018-10-16T05:31:16.342Z,93.90
2018-10-16T05:33:45.042Z,93.80
2018-10-16T05:36:13.879Z,93.70
2018-10-16T05:38:43.232Z,93.90
2018-10-16T05:41:11.942Z,93.90
2018-10-16T05:43:40.658Z,93.90
2018-10-16T05:46:09.378Z,93.80
2018-10-16T05:48:38.315Z,93.90
2018-10-16T05:51:06.995Z,94.00
2018-10-16T05:53:35.944Z,94.00
2018-10-16T05:56:05.906Z,94.20
2018-10-16T05:58:35.686Z,94.30
2018-10-16T06:01:04.602Z,94.50
2018-10-16T06:03:33.539Z,94.50
2018-10-16T06:06:02.215Z,94.70
2018-10-16T06:08:30.902Z,94.70
2018-10-16T06:10:59.739Z,94.70
2018-10-16T06:13:28.363Z,94.60
2018-10-16T06:15:58.338Z,94.50
2018-10-16T06:18:27.068Z,94.20
2018-10-16T06:20:55.779Z,93.90
2018-10-16T06:23:24.421Z,93.70
2018-10-16T06:25:53.124Z,93.80
2018-10-16T06:28:24.514Z,94.10
2018-10-16T06:30:53.274Z,94.40
2018-10-16T06:33:23.849Z,94.50
2018-10-16T06:35:52.516Z,94.70
2018-10-16T06:38:21.362Z,94.80
2018-10-16T06:40:50.510Z,94.70
2018-10-16T06:43:19.214Z,94.70
2018-10-16T06:45:47.888Z,94.70
2018-10-16T06:48:16.732Z,94.60
2018-10-16T06:50:45.485Z,94.40
2018-10-16T06:53:14.240Z,94.30
2018-10-16T06:55:43.571Z,94.00
2018-10-16T06:58:12.291Z,93.70
2018-10-16T07:00:41.194Z,93.50
2018-10-16T07:03:11.218Z,93.20
2018-10-16T07:05:39.942Z,93.00
2018-10-16T07:08:08.610Z,92.70
2018-10-16T07:10:40.268Z,92.50
2018-10-16T07:13:11.316Z,92.50
2018-10-16T07:15:39.989Z,92.20
2018-10-16T07:18:08.681Z,91.90
2018-10-16T07:20:37.364Z,91.70
2018-10-16T07:23:23.707Z,91.60
2018-10-16T07:25:54.527Z,91.20
2018-10-16T07:28:25.580Z,91.00
2018-10-16T07:30:54.317Z,90.40
2018-10-16T07:33:22.989Z,89.90
2018-10-16T07:35:51.747Z,89.40
2018-10-16T07:38:20.460Z,88.50
2018-10-16T07:40:49.349Z,88.20
2018-10-16T07:43:18.066Z,88.10
2018-10-16T07:45:46.699Z,86.70
2018-10-16T07:48:15.451Z,86.20
2018-10-16T07:50:44.117Z,85.70
2018-10-16T07:53:17.861Z,86.00
2018-10-16T07:55:46.590Z,86.40
2018-10-16T07:58:15.299Z,86.40
2018-10-16T08:00:43.994Z,86.60
2018-10-16T08:03:13.058Z,86.20
2018-10-16T08:05:41.824Z,86.00
2018-10-16T08:08:10.535Z,85.50
2018-10-16T08:10:39.262Z,85.10
2018-10-16T08:13:08.040Z,84.50
2018-10-16T08:15:36.706Z,83.60
2018-10-16T08:18:06.116Z,82.90
2018-10-16T08:20:34.851Z,82.60
2018-10-16T08:23:03.552Z,82.30
2018-10-16T08:25:32.254Z,81.20
2018-10-16T08:28:00.942Z,81.50
2018-10-16T08:30:30.225Z,80.90
2018-10-16T08:32:59.339Z,79.40
2018-10-16T08:35:28.437Z,78.30
2018-10-16T08:40:04.542Z,77.10
2018-10-16T08:44:42.181Z,77.30
2018-10-16T08:47:21.998Z,76.50
2018-10-16T08:50:04.136Z,74.30
2018-10-16T08:52:32.747Z,74.00
2018-10-16T08:55:01.583Z,73.10
2018-10-16T08:57:30.473Z,72.70
2018-10-16T08:59:59.128Z,71.50
2018-10-16T09:02:28.015Z,71.50
2018-10-16T09:04:57.614Z,70.30
2018-10-16T09:07:26.234Z,70.10
2018-10-16T09:09:55.079Z,68.90
2018-10-16T09:12:24.119Z,69.10
2018-10-16T09:14:52.746Z,68.30
2018-10-16T09:17:21.379Z,67.00
2018-10-16T09:19:50.392Z,65.70
2018-10-16T09:22:19.102Z,64.80
2018-10-16T09:24:47.820Z,65.20
2018-10-16T09:27:16.755Z,64.60
2018-10-16T09:29:46.045Z,63.90
2018-10-16T09:32:15.472Z,63.50
2018-10-16T09:34:44.241Z,62.10
2018-10-16T09:37:12.857Z,61.10
2018-10-16T09:39:41.695Z,60.10
2018-10-16T09:42:10.252Z,60.00
2018-10-16T09:44:39.250Z,59.90
2018-10-16T09:47:08.069Z,59.10
2018-10-16T09:49:37.286Z,59.90
2018-10-16T09:52:06.395Z,59.30
2018-10-16T09:54:35.126Z,58.90
2018-10-16T09:57:04.093Z,58.80
2018-10-16T09:59:32.985Z,57.80
2018-10-16T10:02:02.019Z,55.80
2018-10-16T10:04:30.706Z,55.00
2018-10-16T10:06:59.602Z,55.40
2018-10-16T10:09:28.551Z,56.10
2018-10-16T10:11:57.260Z,56.60
2018-10-16T10:14:25.897Z,56.20
2018-10-16T10:16:54.523Z,56.40
2018-10-16T10:19:23.989Z,56.40
2018-10-16T10:21:53.545Z,56.00
2018-10-16T10:24:22.310Z,55.50
2018-10-16T10:26:50.942Z,56.00
2018-10-16T10:29:19.734Z,56.70
2018-10-16T10:31:48.407Z,55.70
2018-10-16T10:34:17.446Z,56.20
2018-10-16T10:36:46.389Z,56.90
2018-10-16T10:39:15.073Z,55.70
2018-10-16T10:41:43.765Z,55.00
2018-10-16T10:44:12.422Z,54.90
2018-10-16T10:46:41.079Z,54.10
2018-10-16T10:49:09.822Z,54.00
2018-10-16T10:51:38.899Z,54.80
2018-10-16T10:54:07.294Z,54.10
2018-10-16T10:56:36.059Z,53.90
2018-10-16T10:59:04.879Z,53.90
2018-10-16T11:01:33.616Z,53.40
2018-10-16T11:04:02.271Z,54.30
2018-10-16T11:06:31.039Z,52.90
2018-10-16T11:08:59.728Z,52.70
2018-10-16T11:11:29.599Z,53.40
2018-10-16T11:13:59.489Z,52.50
2018-10-16T11:16:29.247Z,52.70
2018-10-16T11:18:57.997Z,51.70
2018-10-16T11:21:26.718Z,52.60
2018-10-16T11:23:55.340Z,51.70
2018-10-16T11:26:24.015Z,51.70
2018-10-16T11:28:52.689Z,51.40
2018-10-16T11:31:21.432Z,51.20
2018-10-16T11:33:50.046Z,50.10
2018-10-16T11:36:19.214Z,50.80
2018-10-16T11:38:47.905Z,50.60
2018-10-16T11:41:16.539Z,50.30
2018-10-16T11:43:45.275Z,50.10
2018-10-16T11:46:14.277Z,48.40
2018-10-16T11:48:43.391Z,48.90
2018-10-16T11:51:12.403Z,48.90
2018-10-16T11:53:41.628Z,48.10
2018-10-16T11:56:10.669Z,48.90
2018-10-16T11:58:39.292Z,48.40
2018-10-16T12:01:08.458Z,48.30
2018-10-16T12:03:37.155Z,47.90
2018-10-16T12:06:06.127Z,48.00
2018-10-16T12:08:34.739Z,47.00
2018-10-16T12:11:03.396Z,47.40
2018-10-16T12:13:32.226Z,47.20
2018-10-16T12:16:00.847Z,46.80
2018-10-16T12:18:33.059Z,48.00
2018-10-16T12:21:05.772Z,47.70
2018-10-16T12:23:34.429Z,45.50
2018-10-16T12:26:03.110Z,46.00
2018-10-16T12:28:31.783Z,47.20
2018-10-16T12:31:00.482Z,46.50
2018-10-16T12:33:29.091Z,46.70
2018-10-16T12:35:57.687Z,45.20
2018-10-16T12:38:26.424Z,45.50
2018-10-16T12:40:54.973Z,45.80
2018-10-16T12:43:23.886Z,43.70
2018-10-16T12:45:52.711Z,44.50
2018-10-16T12:48:21.386Z,44.60
2018-10-16T12:50:50.590Z,44.70
2018-10-16T12:53:19.289Z,44.70
2018-10-16T12:55:47.986Z,44.40
2018-10-16T12:58:16.685Z,44.20
2018-10-16T13:00:45.591Z,44.60
2018-10-16T13:03:14.584Z,42.80
2018-10-16T13:05:43.279Z,42.80
2018-10-16T13:08:17.045Z,42.60
2018-10-16T13:10:45.874Z,44.00
2018-10-16T13:13:14.613Z,43.40
2018-10-16T14:11:18.639Z,41.30
2018-10-16T14:13:47.889Z,40.20
2018-10-16T14:16:17.094Z,40.20
2018-10-16T14:18:46.239Z,40.10
2018-10-16T14:21:15.904Z,40.50
2018-10-16T14:26:37.407Z,39.20
2018-10-16T14:29:06.923Z,39.30
2018-10-16T14:31:36.386Z,38.70
2018-10-16T14:34:05.824Z,38.60
2018-10-16T14:36:34.950Z,38.00
2018-10-16T14:39:04.601Z,37.60
2018-10-16T14:41:33.854Z,38.20
2018-10-16T14:44:03.085Z,37.80
2018-10-16T14:46:32.247Z,37.60
2018-10-16T14:49:02.848Z,36.90
2018-10-16T14:51:31.905Z,36.80
2018-10-16T14:54:01.758Z,37.00
2018-10-16T14:56:31.040Z,37.10
2018-10-16T14:59:00.071Z,36.60
2018-10-16T15:01:29.072Z,36.80
2018-10-16T15:03:57.775Z,36.30
2018-10-16T15:06:26.483Z,36.20
2018-10-16T15:08:55.165Z,36.00
2018-10-16T15:11:23.906Z,36.40
2018-10-16T15:13:52.870Z,36.60
2018-10-16T15:16:22.457Z,36.90
2018-10-16T15:18:51.110Z,36.90
2018-10-16T15:21:19.771Z,37.20
2018-10-16T15:23:48.630Z,37.80
2018-10-16T15:26:17.283Z,37.00
2018-10-16T15:28:48.218Z,37.10
2018-10-16T15:31:17.083Z,37.00
2018-10-16T15:33:45.748Z,37.00
2018-10-16T15:36:14.469Z,37.20
2018-10-16T15:38:43.118Z,36.60
2018-10-16T15:41:11.935Z,37.20
2018-10-16T15:43:40.578Z,37.60
2018-10-16T15:46:09.756Z,38.40
2018-10-16T15:48:38.443Z,39.00
2018-10-16T15:51:07.408Z,39.60
2018-10-16T15:53:36.537Z,41.20
2018-10-16T15:56:05.702Z,43.20
2018-10-16T15:58:34.627Z,45.30
2018-10-16T16:01:03.623Z,46.90
2018-10-16T16:03:32.347Z,48.20
2018-10-16T16:06:01.402Z,49.50
2018-10-16T16:08:30.402Z,50.80
2018-10-16T16:10:59.074Z,51.80
2018-10-16T16:13:28.106Z,52.70
2018-10-16T16:15:56.896Z,53.40
2018-10-16T16:18:25.686Z,54.10
2018-10-16T16:20:54.391Z,54.40
2018-10-16T16:23:23.253Z,54.90
2018-10-16T16:25:52.112Z,55.30
2018-10-16T16:28:20.766Z,56.00
2018-10-16T16:30:49.478Z,56.60
2018-10-16T16:33:18.358Z,57.40
2018-10-16T16:35:47.290Z,57.50
2018-10-16T16:38:16.681Z,58.40
2018-10-16T16:40:45.602Z,59.10
2018-10-16T16:43:14.313Z,59.70
2018-10-16T16:45:43.130Z,60.00
2018-10-16T16:48:12.675Z,60.50
2018-10-16T16:50:41.363Z,60.50
2018-10-16T16:53:10.057Z,60.60
2018-10-16T16:55:38.628Z,61.10
2018-10-16T16:58:07.421Z,61.50
2018-10-16T17:00:36.027Z,62.10
2018-10-16T17:03:05.116Z,62.40
2018-10-16T17:05:33.774Z,63.00
2018-10-16T17:08:02.703Z,63.70
2018-10-16T17:10:31.386Z,64.20
2018-10-16T17:13:00.022Z,64.40
2018-10-16T17:15:28.663Z,65.20
2018-10-16T17:17:57.376Z,65.30
2018-10-16T17:20:26.146Z,65.40
2018-10-16T17:22:54.879Z,65.40
2018-10-16T17:25:24.406Z,65.90
2018-10-16T17:27:53.440Z,66.30
2018-10-16T17:30:22.211Z,66.50
2018-10-16T17:32:51.059Z,67.00
2018-10-16T17:35:19.956Z,67.10
2018-10-16T17:37:48.787Z,67.40
2018-10-16T17:40:18.398Z,67.70
2018-10-16T17:42:47.035Z,68.20
2018-10-16T17:45:17.106Z,68.20
2018-10-16T17:47:46.047Z,68.50
2018-10-16T17:50:16.514Z,68.70
2018-10-16T17:52:45.271Z,68.80
2018-10-16T17:55:14.985Z,69.40
2018-10-16T17:57:43.814Z,69.60
2018-10-16T18:00:14.770Z,70.00
2018-10-16T18:02:43.980Z,70.10
2018-10-16T18:05:13.242Z,70.20
2018-10-16T18:07:44.061Z,70.50
2018-10-16T18:10:13.454Z,70.70
2018-10-16T18:12:42.170Z,70.90
2018-10-16T18:15:12.736Z,71.10
2018-10-16T18:17:42.119Z,71.30
2018-10-16T18:20:13.298Z,71.50
2018-10-16T18:22:42.454Z,71.70
2018-10-16T18:25:11.710Z,71.90
2018-10-16T18:27:41.108Z,72.30
2018-10-16T18:30:10.542Z,72.30
2018-10-16T18:32:39.535Z,72.50
2018-10-16T18:35:08.245Z,72.80
2018-10-16T18:37:36.995Z,73.20
2018-10-16T18:40:08.460Z,73.20
2018-10-16T18:42:37.556Z,73.20
2018-10-16T18:45:09.368Z,73.60
2018-10-16T18:47:38.130Z,74.00
2018-10-16T18:50:08.686Z,74.20
2018-10-16T18:52:37.423Z,74.40
2018-10-16T18:55:08.218Z,74.60
2018-10-16T18:57:37.107Z,74.60
2018-10-16T19:00:07.884Z,74.60
2018-10-16T19:02:36.694Z,75.00
2018-10-16T19:05:06.205Z,75.40
2018-10-16T19:07:34.846Z,75.60
2018-10-16T19:10:03.767Z,75.70
2018-10-16T19:12:32.482Z,75.90
2018-10-16T19:15:03.394Z,76.40
2018-10-16T19:17:32.078Z,76.60
2018-10-16T19:20:00.842Z,76.50
2018-10-16T19:22:29.534Z,76.40
2018-10-16T19:24:58.297Z,76.70
2018-10-16T19:27:27.034Z,77.10
2018-10-16T19:29:55.865Z,77.10
2018-10-16T19:32:24.790Z,77.20
2018-10-16T19:34:53.547Z,77.00
2018-10-16T19:37:22.361Z,77.20
2018-10-16T19:39:51.048Z,77.60
2018-10-16T19:42:19.750Z,77.20
2018-10-16T19:44:48.524Z,77.10
2018-10-16T19:47:17.690Z,77.70
2018-10-16T19:49:46.375Z,78.10
2018-10-16T19:52:15.257Z,78.20
2018-10-16T19:54:50.719Z,78.40
2018-10-16T19:57:21.071Z,78.90
2018-10-16T19:59:50.838Z,79.20
2018-10-16T20:02:19.642Z,79.50
2018-10-16T20:04:48.317Z,79.60
2018-10-16T20:07:17.269Z,80.10
2018-10-16T20:09:46.706Z,80.10
2018-10-16T20:12:15.740Z,79.80
2018-10-16T20:14:44.602Z,80.10
2018-10-16T20:17:13.421Z,80.20
2018-10-16T20:19:42.303Z,80.70
2018-10-16T20:22:11.598Z,80.30
2018-10-16T20:24:40.489Z,80.60
2018-10-16T20:27:09.175Z,80.90
2018-10-16T20:29:37.815Z,80.90
2018-10-16T20:32:06.502Z,80.90
2018-10-16T20:34:35.161Z,80.60
2018-10-16T20:37:03.930Z,80.70
2018-10-16T20:39:32.617Z,81.00
2018-10-16T20:42:01.636Z,81.00
2018-10-16T20:44:30.224Z,81.20
2018-10-16T20:46:59.063Z,81.40
2018-10-16T20:49:27.999Z,81.10
2018-10-16T20:51:59.170Z,81.20
2018-10-16T20:54:27.805Z,81.70
2018-10-16T20:56:56.428Z,82.10
2018-10-16T20:59:25.166Z,82.00
2018-10-16T21:01:53.793Z,82.00
2018-10-16T21:04:22.522Z,81.90
2018-10-16T21:06:51.630Z,82.00
2018-10-16T21:09:20.170Z,82.20
2018-10-16T21:11:48.850Z,82.80
2018-10-16T21:14:17.854Z,82.90
2018-10-16T21:16:46.801Z,82.90
2018-10-16T21:19:15.689Z,82.70
2018-10-16T21:21:44.581Z,82.50
2018-10-16T21:24:13.506Z,82.70
2018-10-16T21:26:42.173Z,82.80
2018-10-16T21:29:11.299Z,83.00
2018-10-16T21:31:39.960Z,83.20
2018-10-16T21:34:08.909Z,83.40
2018-10-16T21:36:37.811Z,82.90
2018-10-16T21:39:07.029Z,83.00
2018-10-16T21:41:35.747Z,83.50
2018-10-16T21:44:04.405Z,83.90
2018-10-16T21:46:33.365Z,84.00
2018-10-16T21:49:02.131Z,84.10
2018-10-16T21:51:30.751Z,84.40
2018-10-16T21:53:59.934Z,84.30
2018-10-16T21:56:28.642Z,84.20
2018-10-16T21:58:57.300Z,84.40
2018-10-16T22:01:31.330Z,84.50
2018-10-16T22:04:00.566Z,84.80
2018-10-16T22:06:29.212Z,85.00
2018-10-16T22:08:58.219Z,85.00
2018-10-16T22:11:26.964Z,85.00
2018-10-16T22:13:55.725Z,85.00
2018-10-16T22:16:25.187Z,84.80
2018-10-16T22:18:53.983Z,84.90
2018-10-16T22:21:23.200Z,85.10
2018-10-16T22:23:51.969Z,85.40
2018-10-16T22:26:20.858Z,85.50
2018-10-16T22:28:49.440Z,85.30
2018-10-16T22:31:18.707Z,85.20
2018-10-16T22:33:47.381Z,85.20
2018-10-16T22:36:16.141Z,85.10
2018-10-16T22:38:44.734Z,85.30
2018-10-16T22:41:13.983Z,86.00
2018-10-16T22:43:42.664Z,86.20
2018-10-16T22:46:11.362Z,86.30
2018-10-16T22:48:40.542Z,85.80
2018-10-16T22:51:09.650Z,86.00
2018-10-16T22:53:38.323Z,86.20
2018-10-16T22:56:07.740Z,86.60
2018-10-16T22:58:36.645Z,86.70
2018-10-16T23:01:05.677Z,87.40
2018-10-16T23:03:34.746Z,88.00
2018-10-16T23:06:03.459Z,87.60
2018-10-16T23:08:32.210Z,87.70
2018-10-16T23:11:01.070Z,88.20
2018-10-16T23:13:29.919Z,88.90
2018-10-16T23:15:58.654Z,89.60
2018-10-16T23:18:27.975Z,90.10
2018-10-16T23:20:56.693Z,89.90
2018-10-16T23:23:25.599Z,89.60
2018-10-16T23:25:54.261Z,89.40
2018-10-16T23:28:22.950Z,89.50
2018-10-16T23:30:51.757Z,89.50
2018-10-16T23:33:20.466Z,89.80
2018-10-16T23:35:49.266Z,89.80
2018-10-16T23:38:18.259Z,89.60
2018-10-16T23:40:47.026Z,89.40
2018-10-16T23:43:15.938Z,89.30
2018-10-16T23:45:44.979Z,89.20
2018-10-16T23:48:13.678Z,89.30
2018-10-16T23:50:42.327Z,89.70
2018-10-16T23:53:11.345Z,90.00
2018-10-16T23:55:40.955Z,90.10
2018-10-16T23:58:09.654Z,90.10
